sensor_id;sensor_type;location;lat;lon;timestamp;P1;durP1;ratioP1;P2;durP2;ratioP2
11646;SDS011;5880;52.342;9.662;2023-06-24T00:02:19;4.05;;;3.75;;
11646;SDS011;5880;52.342;9.662;2023-06-24T00:04:48;5.18;;;4.13;;
11646;SDS011;5880;52.342;9.662;2023-06-24T00:07:16;4.68;;;4.28;;
11646;SDS011;5880;52.342;9.662;2023-06-24T00:09:41;4.50;;;4.10;;
11646;SDS011;5880;52.342;9.662;2023-06-24T00:12:07;4.20;;;3.80;;
11646;SDS011;5880;52.342;9.662;2023-06-24T00:14:33;4.05;;;3.75;;
11646;SDS011;5880;52.342;9.662;2023-06-24T00:16:59;4.20;;;3.80;;
11646;SDS011;5880;52.342;9.662;2023-06-24T00:19:25;4.60;;;4.20;;
11646;SDS011;5880;52.342;9.662;2023-06-24T00:21:53;4.78;;;4.38;;
11646;SDS011;5880;52.342;9.662;2023-06-24T00:24:20;4.05;;;3.63;;
11646;SDS011;5880;52.342;9.662;2023-06-24T00:26:50;4.50;;;4.10;;
11646;SDS011;5880;52.342;9.662;2023-06-24T00:29:17;4.40;;;3.65;;
11646;SDS011;5880;52.342;9.662;2023-06-24T00:31:43;4.40;;;4.00;;
11646;SDS011;5880;52.342;9.662;2023-06-24T00:34:09;3.58;;;3.28;;
11646;SDS011;5880;52.342;9.662;2023-06-24T00:36:34;7.05;;;4.45;;
11646;SDS011;5880;52.342;9.662;2023-06-24T00:39:01;4.38;;;3.97;;
11646;SDS011;5880;52.342;9.662;2023-06-24T00:41:28;4.47;;;4.07;;
11646;SDS011;5880;52.342;9.662;2023-06-24T00:43:55;4.60;;;4.20;;
11646;SDS011;5880;52.342;9.662;2023-06-24T00:46:22;4.38;;;3.97;;
11646;SDS011;5880;52.342;9.662;2023-06-24T00:48:51;5.65;;;4.10;;
11646;SDS011;5880;52.342;9.662;2023-06-24T00:51:17;4.20;;;3.80;;
11646;SDS011;5880;52.342;9.662;2023-06-24T00:53:46;4.18;;;3.78;;
11646;SDS011;5880;52.342;9.662;2023-06-24T00:56:13;4.10;;;3.55;;
11646;SDS011;5880;52.342;9.662;2023-06-24T00:58:43;5.53;;;3.83;;
11646;SDS011;5880;52.342;9.662;2023-06-24T01:01:10;4.35;;;3.95;;
11646;SDS011;5880;52.342;9.662;2023-06-24T01:03:36;6.15;;;4.07;;
11646;SDS011;5880;52.342;9.662;2023-06-24T01:06:02;4.15;;;3.75;;
11646;SDS011;5880;52.342;9.662;2023-06-24T01:08:28;4.07;;;3.78;;
11646;SDS011;5880;52.342;9.662;2023-06-24T01:10:54;4.72;;;4.20;;
11646;SDS011;5880;52.342;9.662;2023-06-24T01:13:21;4.28;;;3.88;;
11646;SDS011;5880;52.342;9.662;2023-06-24T01:15:47;6.32;;;3.95;;
11646;SDS011;5880;52.342;9.662;2023-06-24T01:18:47;5.20;;;4.15;;
11646;SDS011;5880;52.342;9.662;2023-06-24T01:21:18;4.57;;;4.18;;
11646;SDS011;5880;52.342;9.662;2023-06-24T01:30:08;4.10;;;3.63;;
11646;SDS011;5880;52.342;9.662;2023-06-24T01:33:15;4.05;;;3.65;;
11646;SDS011;5880;52.342;9.662;2023-06-24T01:36:15;3.88;;;3.58;;
11646;SDS011;5880;52.342;9.662;2023-06-24T01:38:47;4.20;;;3.83;;
11646;SDS011;5880;52.342;9.662;2023-06-24T01:41:21;4.38;;;3.97;;
11646;SDS011;5880;52.342;9.662;2023-06-24T01:43:52;4.32;;;3.92;;
11646;SDS011;5880;52.342;9.662;2023-06-24T01:46:21;4.57;;;3.85;;
11646;SDS011;5880;52.342;9.662;2023-06-24T01:48:50;4.22;;;3.70;;
11646;SDS011;5880;52.342;9.662;2023-06-24T01:51:24;4.07;;;3.67;;
11646;SDS011;5880;52.342;9.662;2023-06-24T01:53:55;4.20;;;3.80;;
11646;SDS011;5880;52.342;9.662;2023-06-24T01:56:27;5.22;;;4.18;;
11646;SDS011;5880;52.342;9.662;2023-06-24T01:58:57;4.63;;;4.22;;
11646;SDS011;5880;52.342;9.662;2023-06-24T02:01:27;4.80;;;4.40;;
11646;SDS011;5880;52.342;9.662;2023-06-24T02:03:55;4.47;;;3.75;;
11646;SDS011;5880;52.342;9.662;2023-06-24T02:06:22;4.68;;;3.97;;
11646;SDS011;5880;52.342;9.662;2023-06-24T02:08:50;4.33;;;4.00;;
11646;SDS011;5880;52.342;9.662;2023-06-24T02:11:19;6.87;;;4.07;;
11646;SDS011;5880;52.342;9.662;2023-06-24T02:13:48;4.28;;;3.70;;
11646;SDS011;5880;52.342;9.662;2023-06-24T02:16:16;5.38;;;3.95;;
11646;SDS011;5880;52.342;9.662;2023-06-24T02:18:44;4.85;;;4.35;;
11646;SDS011;5880;52.342;9.662;2023-06-24T02:21:09;5.27;;;4.37;;
11646;SDS011;5880;52.342;9.662;2023-06-24T02:23:37;5.40;;;4.32;;
11646;SDS011;5880;52.342;9.662;2023-06-24T02:26:04;4.43;;;4.03;;
11646;SDS011;5880;52.342;9.662;2023-06-24T02:28:32;4.17;;;3.77;;
11646;SDS011;5880;52.342;9.662;2023-06-24T02:30:59;4.67;;;4.20;;
11646;SDS011;5880;52.342;9.662;2023-06-24T02:33:26;5.83;;;4.23;;
11646;SDS011;5880;52.342;9.662;2023-06-24T02:35:52;4.33;;;3.93;;
11646;SDS011;5880;52.342;9.662;2023-06-24T02:38:18;4.63;;;4.10;;
11646;SDS011;5880;52.342;9.662;2023-06-24T02:40:45;4.67;;;3.77;;
11646;SDS011;5880;52.342;9.662;2023-06-24T02:43:11;4.47;;;3.75;;
11646;SDS011;5880;52.342;9.662;2023-06-24T02:45:37;3.70;;;3.40;;
11646;SDS011;5880;52.342;9.662;2023-06-24T02:48:04;4.50;;;4.10;;
11646;SDS011;5880;52.342;9.662;2023-06-24T02:50:33;4.53;;;3.93;;
11646;SDS011;5880;52.342;9.662;2023-06-24T02:53:00;4.20;;;3.80;;
11646;SDS011;5880;52.342;9.662;2023-06-24T02:55:27;6.47;;;4.03;;
11646;SDS011;5880;52.342;9.662;2023-06-24T02:57:54;4.37;;;3.97;;
11646;SDS011;5880;52.342;9.662;2023-06-24T03:00:22;4.30;;;3.57;;
11646;SDS011;5880;52.342;9.662;2023-06-24T03:02:48;3.70;;;3.30;;
11646;SDS011;5880;52.342;9.662;2023-06-24T03:05:15;4.20;;;3.67;;
11646;SDS011;5880;52.342;9.662;2023-06-24T03:07:42;4.90;;;3.80;;
11646;SDS011;5880;52.342;9.662;2023-06-24T03:10:08;4.77;;;3.93;;
11646;SDS011;5880;52.342;9.662;2023-06-24T03:12:35;4.63;;;3.97;;
11646;SDS011;5880;52.342;9.662;2023-06-24T03:15:01;4.83;;;3.70;;
11646;SDS011;5880;52.342;9.662;2023-06-24T03:17:27;3.87;;;3.37;;
11646;SDS011;5880;52.342;9.662;2023-06-24T03:19:54;4.07;;;3.67;;
11646;SDS011;5880;52.342;9.662;2023-06-24T03:22:21;3.70;;;3.40;;
11646;SDS011;5880;52.342;9.662;2023-06-24T03:24:47;5.63;;;3.83;;
11646;SDS011;5880;52.342;9.662;2023-06-24T03:27:14;4.40;;;3.73;;
11646;SDS011;5880;52.342;9.662;2023-06-24T03:29:39;4.85;;;3.92;;
11646;SDS011;5880;52.342;9.662;2023-06-24T03:32:05;5.00;;;3.73;;
11646;SDS011;5880;52.342;9.662;2023-06-24T03:34:31;4.57;;;3.95;;
11646;SDS011;5880;52.342;9.662;2023-06-24T03:36:57;4.07;;;3.77;;
11646;SDS011;5880;52.342;9.662;2023-06-24T03:39:22;4.10;;;3.70;;
11646;SDS011;5880;52.342;9.662;2023-06-24T03:41:48;4.45;;;3.38;;
11646;SDS011;5880;52.342;9.662;2023-06-24T03:44:15;3.65;;;3.30;;
11646;SDS011;5880;52.342;9.662;2023-06-24T03:46:40;4.20;;;3.90;;
11646;SDS011;5880;52.342;9.662;2023-06-24T03:49:06;4.20;;;3.80;;
11646;SDS011;5880;52.342;9.662;2023-06-24T03:51:32;4.43;;;4.00;;
11646;SDS011;5880;52.342;9.662;2023-06-24T03:53:58;5.70;;;3.90;;
11646;SDS011;5880;52.342;9.662;2023-06-24T03:56:23;5.90;;;3.75;;
11646;SDS011;5880;52.342;9.662;2023-06-24T03:58:49;4.65;;;3.83;;
11646;SDS011;5880;52.342;9.662;2023-06-24T04:01:15;3.92;;;3.53;;
11646;SDS011;5880;52.342;9.662;2023-06-24T04:03:44;4.13;;;3.75;;
11646;SDS011;5880;52.342;9.662;2023-06-24T04:06:10;4.20;;;3.80;;
11646;SDS011;5880;52.342;9.662;2023-06-24T04:08:36;5.60;;;4.15;;
11646;SDS011;5880;52.342;9.662;2023-06-24T04:11:05;3.95;;;3.63;;
11646;SDS011;5880;52.342;9.662;2023-06-24T04:13:32;5.13;;;3.85;;
11646;SDS011;5880;52.342;9.662;2023-06-24T04:15:58;4.50;;;3.75;;
11646;SDS011;5880;52.342;9.662;2023-06-24T04:18:23;4.05;;;3.65;;
11646;SDS011;5880;52.342;9.662;2023-06-24T04:20:49;4.20;;;3.40;;
11646;SDS011;5880;52.342;9.662;2023-06-24T04:23:15;5.53;;;3.97;;
11646;SDS011;5880;52.342;9.662;2023-06-24T04:25:41;5.05;;;4.07;;
11646;SDS011;5880;52.342;9.662;2023-06-24T04:28:07;4.53;;;3.85;;
11646;SDS011;5880;52.342;9.662;2023-06-24T04:30:33;5.93;;;3.95;;
11646;SDS011;5880;52.342;9.662;2023-06-24T04:33:03;5.13;;;3.97;;
11646;SDS011;5880;52.342;9.662;2023-06-24T04:35:29;5.40;;;3.97;;
11646;SDS011;5880;52.342;9.662;2023-06-24T04:37:55;4.95;;;4.10;;
11646;SDS011;5880;52.342;9.662;2023-06-24T04:40:21;4.60;;;4.20;;
11646;SDS011;5880;52.342;9.662;2023-06-24T04:42:47;4.97;;;4.57;;
11646;SDS011;5880;52.342;9.662;2023-06-24T04:45:12;5.70;;;4.18;;
11646;SDS011;5880;52.342;9.662;2023-06-24T04:47:38;5.68;;;4.63;;
11646;SDS011;5880;52.342;9.662;2023-06-24T04:50:04;4.60;;;4.20;;
11646;SDS011;5880;52.342;9.662;2023-06-24T04:52:31;5.07;;;4.65;;
11646;SDS011;5880;52.342;9.662;2023-06-24T04:54:57;5.22;;;4.72;;
11646;SDS011;5880;52.342;9.662;2023-06-24T04:57:23;5.15;;;4.15;;
11646;SDS011;5880;52.342;9.662;2023-06-24T04:59:52;5.50;;;5.00;;
11646;SDS011;5880;52.342;9.662;2023-06-24T05:02:17;5.65;;;5.15;;
11646;SDS011;5880;52.342;9.662;2023-06-24T05:04:43;5.57;;;5.07;;
11646;SDS011;5880;52.342;9.662;2023-06-24T05:07:09;6.07;;;4.57;;
11646;SDS011;5880;52.342;9.662;2023-06-24T05:09:34;6.82;;;5.40;;
11646;SDS011;5880;52.342;9.662;2023-06-24T05:12:02;6.30;;;4.75;;
11646;SDS011;5880;52.342;9.662;2023-06-24T05:14:29;5.65;;;4.90;;
11646;SDS011;5880;52.342;9.662;2023-06-24T05:16:55;5.35;;;4.85;;
11646;SDS011;5880;52.342;9.662;2023-06-24T05:19:21;5.38;;;4.95;;
11646;SDS011;5880;52.342;9.662;2023-06-24T05:21:47;5.15;;;4.65;;
11646;SDS011;5880;52.342;9.662;2023-06-24T05:24:12;5.35;;;4.85;;
11646;SDS011;5880;52.342;9.662;2023-06-24T05:26:38;5.95;;;4.90;;
11646;SDS011;5880;52.342;9.662;2023-06-24T05:29:04;5.35;;;4.85;;
11646;SDS011;5880;52.342;9.662;2023-06-24T05:31:30;6.10;;;5.50;;
11646;SDS011;5880;52.342;9.662;2023-06-24T05:33:56;5.97;;;4.90;;
11646;SDS011;5880;52.342;9.662;2023-06-24T05:36:21;5.25;;;4.78;;
11646;SDS011;5880;52.342;9.662;2023-06-24T05:38:47;5.93;;;4.78;;
11646;SDS011;5880;52.342;9.662;2023-06-24T05:41:13;5.38;;;4.97;;
11646;SDS011;5880;52.342;9.662;2023-06-24T05:43:42;6.35;;;5.20;;
11646;SDS011;5880;52.342;9.662;2023-06-24T05:46:08;6.00;;;5.50;;
11646;SDS011;5880;52.342;9.662;2023-06-24T05:48:34;6.68;;;5.50;;
11646;SDS011;5880;52.342;9.662;2023-06-24T05:50:59;6.38;;;5.68;;
11646;SDS011;5880;52.342;9.662;2023-06-24T05:53:25;5.70;;;5.20;;
11646;SDS011;5880;52.342;9.662;2023-06-24T05:55:50;6.97;;;6.28;;
11646;SDS011;5880;52.342;9.662;2023-06-24T05:58:16;5.85;;;5.22;;
11646;SDS011;5880;52.342;9.662;2023-06-24T06:00:42;5.97;;;5.47;;
11646;SDS011;5880;52.342;9.662;2023-06-24T06:03:07;6.20;;;5.70;;
11646;SDS011;5880;52.342;9.662;2023-06-24T06:05:34;6.22;;;5.63;;
11646;SDS011;5880;52.342;9.662;2023-06-24T06:08:00;6.57;;;5.93;;
11646;SDS011;5880;52.342;9.662;2023-06-24T06:10:25;5.38;;;4.88;;
11646;SDS011;5880;52.342;9.662;2023-06-24T06:12:51;6.68;;;6.07;;
11646;SDS011;5880;52.342;9.662;2023-06-24T06:15:18;5.78;;;5.28;;
11646;SDS011;5880;52.342;9.662;2023-06-24T06:17:45;5.53;;;5.10;;
11646;SDS011;5880;52.342;9.662;2023-06-24T06:20:11;5.30;;;4.82;;
11646;SDS011;5880;52.342;9.662;2023-06-24T06:22:37;5.70;;;5.20;;
11646;SDS011;5880;52.342;9.662;2023-06-24T06:25:06;4.60;;;4.20;;
11646;SDS011;5880;52.342;9.662;2023-06-24T06:27:32;5.20;;;4.80;;
11646;SDS011;5880;52.342;9.662;2023-06-24T06:29:58;4.85;;;4.43;;
11646;SDS011;5880;52.342;9.662;2023-06-24T06:32:24;4.88;;;4.47;;
11646;SDS011;5880;52.342;9.662;2023-06-24T06:34:50;4.78;;;4.40;;
11646;SDS011;5880;52.342;9.662;2023-06-24T06:37:15;4.70;;;4.30;;
11646;SDS011;5880;52.342;9.662;2023-06-24T06:39:41;5.03;;;4.63;;
11646;SDS011;5880;52.342;9.662;2023-06-24T06:42:07;4.28;;;3.97;;
11646;SDS011;5880;52.342;9.662;2023-06-24T06:44:32;4.82;;;4.43;;
11646;SDS011;5880;52.342;9.662;2023-06-24T06:46:58;4.57;;;4.18;;
11646;SDS011;5880;52.342;9.662;2023-06-24T06:49:24;4.35;;;4.00;;
11646;SDS011;5880;52.342;9.662;2023-06-24T06:51:49;3.97;;;3.67;;
11646;SDS011;5880;52.342;9.662;2023-06-24T06:54:18;4.47;;;4.07;;
11646;SDS011;5880;52.342;9.662;2023-06-24T06:56:44;3.80;;;3.50;;
11646;SDS011;5880;52.342;9.662;2023-06-24T06:59:10;3.90;;;3.50;;
11646;SDS011;5880;52.342;9.662;2023-06-24T07:01:35;3.80;;;3.50;;
11646;SDS011;5880;52.342;9.662;2023-06-24T07:04:01;3.83;;;3.53;;
11646;SDS011;5880;52.342;9.662;2023-06-24T07:06:27;3.75;;;3.42;;
11646;SDS011;5880;52.342;9.662;2023-06-24T07:08:52;3.83;;;3.53;;
11646;SDS011;5880;52.342;9.662;2023-06-24T07:11:18;3.88;;;3.50;;
11646;SDS011;5880;52.342;9.662;2023-06-24T07:13:44;3.80;;;3.50;;
11646;SDS011;5880;52.342;9.662;2023-06-24T07:16:10;3.70;;;3.28;;
11646;SDS011;5880;52.342;9.662;2023-06-24T07:18:36;3.30;;;3.05;;
11646;SDS011;5880;52.342;9.662;2023-06-24T07:21:02;3.92;;;3.63;;
11646;SDS011;5880;52.342;9.662;2023-06-24T07:23:28;3.65;;;3.35;;
11646;SDS011;5880;52.342;9.662;2023-06-24T07:25:53;4.10;;;3.70;;
11646;SDS011;5880;52.342;9.662;2023-06-24T07:28:19;3.70;;;3.40;;
11646;SDS011;5880;52.342;9.662;2023-06-24T07:30:45;3.95;;;3.65;;
11646;SDS011;5880;52.342;9.662;2023-06-24T07:33:11;3.90;;;3.60;;
11646;SDS011;5880;52.342;9.662;2023-06-24T07:35:36;3.70;;;3.40;;
11646;SDS011;5880;52.342;9.662;2023-06-24T07:38:02;3.95;;;3.65;;
11646;SDS011;5880;52.342;9.662;2023-06-24T07:40:28;3.60;;;3.30;;
11646;SDS011;5880;52.342;9.662;2023-06-24T07:42:54;3.72;;;3.42;;
11646;SDS011;5880;52.342;9.662;2023-06-24T07:45:20;3.63;;;3.33;;
11646;SDS011;5880;52.342;9.662;2023-06-24T07:47:46;3.58;;;3.28;;
11646;SDS011;5880;52.342;9.662;2023-06-24T07:50:11;3.88;;;3.40;;
11646;SDS011;5880;52.342;9.662;2023-06-24T07:52:37;4.22;;;3.88;;
11646;SDS011;5880;52.342;9.662;2023-06-24T07:55:03;3.72;;;3.42;;
11646;SDS011;5880;52.342;9.662;2023-06-24T07:57:30;4.05;;;3.75;;
11646;SDS011;5880;52.342;9.662;2023-06-24T07:59:55;3.25;;;2.95;;
11646;SDS011;5880;52.342;9.662;2023-06-24T08:02:21;3.30;;;3.00;;
11646;SDS011;5880;52.342;9.662;2023-06-24T08:04:49;3.17;;;2.88;;
11646;SDS011;5880;52.342;9.662;2023-06-24T08:07:15;3.17;;;2.90;;
11646;SDS011;5880;52.342;9.662;2023-06-24T08:09:41;3.30;;;3.00;;
11646;SDS011;5880;52.342;9.662;2023-06-24T08:12:07;3.50;;;3.20;;
11646;SDS011;5880;52.342;9.662;2023-06-24T08:14:33;3.58;;;3.22;;
11646;SDS011;5880;52.342;9.662;2023-06-24T08:16:59;3.70;;;3.40;;
11646;SDS011;5880;52.342;9.662;2023-06-24T08:19:24;3.63;;;3.33;;
11646;SDS011;5880;52.342;9.662;2023-06-24T08:21:50;3.90;;;3.60;;
11646;SDS011;5880;52.342;9.662;2023-06-24T08:24:15;4.15;;;3.67;;
11646;SDS011;5880;52.342;9.662;2023-06-24T08:26:41;3.92;;;3.40;;
11646;SDS011;5880;52.342;9.662;2023-06-24T08:29:07;3.60;;;3.28;;
11646;SDS011;5880;52.342;9.662;2023-06-24T08:31:32;3.83;;;3.53;;
11646;SDS011;5880;52.342;9.662;2023-06-24T08:33:59;4.10;;;3.70;;
11646;SDS011;5880;52.342;9.662;2023-06-24T08:36:27;3.70;;;3.40;;
11646;SDS011;5880;52.342;9.662;2023-06-24T08:38:54;3.90;;;3.50;;
11646;SDS011;5880;52.342;9.662;2023-06-24T08:41:20;3.85;;;3.55;;
11646;SDS011;5880;52.342;9.662;2023-06-24T08:43:47;5.72;;;3.80;;
11646;SDS011;5880;52.342;9.662;2023-06-24T08:46:13;3.90;;;3.60;;
11646;SDS011;5880;52.342;9.662;2023-06-24T08:48:41;5.78;;;3.80;;
11646;SDS011;5880;52.342;9.662;2023-06-24T08:51:11;5.45;;;3.47;;
11646;SDS011;5880;52.342;9.662;2023-06-24T08:53:43;3.75;;;3.40;;
11646;SDS011;5880;52.342;9.662;2023-06-24T08:56:10;4.32;;;3.92;;
11646;SDS011;5880;52.342;9.662;2023-06-24T08:58:39;3.50;;;3.22;;
11646;SDS011;5880;52.342;9.662;2023-06-24T09:01:05;3.60;;;3.30;;
11646;SDS011;5880;52.342;9.662;2023-06-24T09:03:32;3.65;;;3.35;;
11646;SDS011;5880;52.342;9.662;2023-06-24T09:05:58;4.10;;;3.33;;
11646;SDS011;5880;52.342;9.662;2023-06-24T09:08:24;3.70;;;3.40;;
11646;SDS011;5880;52.342;9.662;2023-06-24T09:10:53;4.13;;;3.25;;
11646;SDS011;5880;52.342;9.662;2023-06-24T09:13:20;3.38;;;3.08;;
11646;SDS011;5880;52.342;9.662;2023-06-24T09:15:48;3.42;;;3.13;;
11646;SDS011;5880;52.342;9.662;2023-06-24T09:18:13;3.70;;;3.40;;
11646;SDS011;5880;52.342;9.662;2023-06-24T09:20:42;3.50;;;3.15;;
11646;SDS011;5880;52.342;9.662;2023-06-24T09:23:09;3.65;;;3.35;;
11646;SDS011;5880;52.342;9.662;2023-06-24T09:25:35;3.67;;;3.05;;
11646;SDS011;5880;52.342;9.662;2023-06-24T09:28:02;3.60;;;3.30;;
11646;SDS011;5880;52.342;9.662;2023-06-24T09:30:28;3.50;;;3.20;;
11646;SDS011;5880;52.342;9.662;2023-06-24T09:32:54;3.70;;;3.40;;
11646;SDS011;5880;52.342;9.662;2023-06-24T09:35:22;3.95;;;3.65;;
11646;SDS011;5880;52.342;9.662;2023-06-24T09:37:50;4.00;;;3.55;;
11646;SDS011;5880;52.342;9.662;2023-06-24T09:40:21;3.55;;;3.25;;
11646;SDS011;5880;52.342;9.662;2023-06-24T09:42:57;3.78;;;3.42;;
11646;SDS011;5880;52.342;9.662;2023-06-24T09:45:28;3.67;;;3.38;;
11646;SDS011;5880;52.342;9.662;2023-06-24T09:47:55;3.92;;;3.63;;
11646;SDS011;5880;52.342;9.662;2023-06-24T09:50:25;3.60;;;3.30;;
11646;SDS011;5880;52.342;9.662;2023-06-24T09:52:51;3.25;;;3.03;;
11646;SDS011;5880;52.342;9.662;2023-06-24T09:55:23;4.10;;;3.70;;
11646;SDS011;5880;52.342;9.662;2023-06-24T09:57:50;3.63;;;3.33;;
11646;SDS011;5880;52.342;9.662;2023-06-24T10:00:19;3.97;;;3.67;;
11646;SDS011;5880;52.342;9.662;2023-06-24T10:02:46;3.72;;;3.42;;
11646;SDS011;5880;52.342;9.662;2023-06-24T10:05:14;3.53;;;3.22;;
11646;SDS011;5880;52.342;9.662;2023-06-24T10:07:40;3.75;;;3.45;;
11646;SDS011;5880;52.342;9.662;2023-06-24T10:10:08;3.38;;;3.08;;
11646;SDS011;5880;52.342;9.662;2023-06-24T10:12:35;3.63;;;3.33;;
11646;SDS011;5880;52.342;9.662;2023-06-24T10:15:01;3.00;;;2.80;;
11646;SDS011;5880;52.342;9.662;2023-06-24T10:17:27;3.72;;;3.20;;
11646;SDS011;5880;52.342;9.662;2023-06-24T10:19:54;3.83;;;3.53;;
11646;SDS011;5880;52.342;9.662;2023-06-24T10:22:23;3.88;;;3.50;;
11646;SDS011;5880;52.342;9.662;2023-06-24T10:24:51;3.63;;;3.33;;
11646;SDS011;5880;52.342;9.662;2023-06-24T10:27:18;3.13;;;2.88;;
11646;SDS011;5880;52.342;9.662;2023-06-24T10:29:53;3.45;;;3.25;;
11646;SDS011;5880;52.342;9.662;2023-06-24T10:32:23;3.30;;;2.90;;
11646;SDS011;5880;52.342;9.662;2023-06-24T10:34:55;3.78;;;3.47;;
11646;SDS011;5880;52.342;9.662;2023-06-24T10:37:26;3.17;;;2.97;;
11646;SDS011;5880;52.342;9.662;2023-06-24T10:39:56;3.28;;;3.00;;
11646;SDS011;5880;52.342;9.662;2023-06-24T10:47:33;3.88;;;3.00;;
11646;SDS011;5880;52.342;9.662;2023-06-24T10:50:20;3.30;;;3.00;;
11646;SDS011;5880;52.342;9.662;2023-06-24T10:52:49;2.90;;;2.70;;
11646;SDS011;5880;52.342;9.662;2023-06-24T10:55:20;3.03;;;2.83;;
11646;SDS011;5880;52.342;9.662;2023-06-24T10:57:49;3.10;;;2.90;;
11646;SDS011;5880;52.342;9.662;2023-06-24T11:00:15;3.30;;;2.70;;
11646;SDS011;5880;52.342;9.662;2023-06-24T11:02:41;3.00;;;2.80;;
11646;SDS011;5880;52.342;9.662;2023-06-24T11:05:07;3.10;;;2.88;;
11646;SDS011;5880;52.342;9.662;2023-06-24T11:07:34;3.30;;;3.00;;
11646;SDS011;5880;52.342;9.662;2023-06-24T11:12:39;3.28;;;3.08;;
11646;SDS011;5880;52.342;9.662;2023-06-24T11:15:09;2.95;;;2.70;;
11646;SDS011;5880;52.342;9.662;2023-06-24T11:17:37;3.25;;;3.05;;
11646;SDS011;5880;52.342;9.662;2023-06-24T11:20:08;4.47;;;3.30;;
11646;SDS011;5880;52.342;9.662;2023-06-24T11:22:41;3.20;;;3.00;;
11646;SDS011;5880;52.342;9.662;2023-06-24T11:25:15;4.10;;;3.25;;
11646;SDS011;5880;52.342;9.662;2023-06-24T11:27:46;3.22;;;2.92;;
11646;SDS011;5880;52.342;9.662;2023-06-24T11:30:16;3.17;;;2.88;;
11646;SDS011;5880;52.342;9.662;2023-06-24T11:32:42;4.00;;;3.67;;
11646;SDS011;5880;52.342;9.662;2023-06-24T11:35:09;3.60;;;3.33;;
11646;SDS011;5880;52.342;9.662;2023-06-24T11:37:43;3.47;;;3.17;;
11646;SDS011;5880;52.342;9.662;2023-06-24T11:40:12;3.45;;;3.15;;
11646;SDS011;5880;52.342;9.662;2023-06-24T11:42:41;4.78;;;3.33;;
11646;SDS011;5880;52.342;9.662;2023-06-24T11:45:10;4.18;;;3.60;;
11646;SDS011;5880;52.342;9.662;2023-06-24T11:47:40;4.13;;;3.83;;
11646;SDS011;5880;52.342;9.662;2023-06-24T11:50:06;4.03;;;3.55;;
11646;SDS011;5880;52.342;9.662;2023-06-24T11:52:43;4.35;;;4.00;;
11646;SDS011;5880;52.342;9.662;2023-06-24T11:55:20;4.10;;;3.70;;
11646;SDS011;5880;52.342;9.662;2023-06-24T11:57:53;4.13;;;3.80;;
11646;SDS011;5880;52.342;9.662;2023-06-24T12:00:28;4.65;;;4.10;;
11646;SDS011;5880;52.342;9.662;2023-06-24T12:03:04;4.20;;;3.80;;
11646;SDS011;5880;52.342;9.662;2023-06-24T12:05:32;5.20;;;4.05;;
11646;SDS011;5880;52.342;9.662;2023-06-24T12:08:10;4.35;;;3.95;;
11646;SDS011;5880;52.342;9.662;2023-06-24T12:10:38;4.38;;;4.07;;
11646;SDS011;5880;52.342;9.662;2023-06-24T12:13:04;5.65;;;3.85;;
11646;SDS011;5880;52.342;9.662;2023-06-24T12:15:32;4.05;;;3.75;;
11646;SDS011;5880;52.342;9.662;2023-06-24T12:17:58;4.05;;;3.60;;
11646;SDS011;5880;52.342;9.662;2023-06-24T12:20:24;4.40;;;4.00;;
11646;SDS011;5880;52.342;9.662;2023-06-24T12:22:50;5.20;;;3.85;;
11646;SDS011;5880;52.342;9.662;2023-06-24T12:25:16;5.13;;;3.95;;
11646;SDS011;5880;52.342;9.662;2023-06-24T12:27:42;4.28;;;3.95;;
11646;SDS011;5880;52.342;9.662;2023-06-24T12:30:09;4.30;;;4.00;;
11646;SDS011;5880;52.342;9.662;2023-06-24T12:32:36;3.97;;;3.67;;
11646;SDS011;5880;52.342;9.662;2023-06-24T12:35:03;4.38;;;3.65;;
11646;SDS011;5880;52.342;9.662;2023-06-24T12:37:32;3.95;;;3.65;;
11646;SDS011;5880;52.342;9.662;2023-06-24T12:39:59;4.28;;;3.90;;
11646;SDS011;5880;52.342;9.662;2023-06-24T12:42:25;4.50;;;4.13;;
11646;SDS011;5880;52.342;9.662;2023-06-24T12:44:51;4.50;;;4.20;;
11646;SDS011;5880;52.342;9.662;2023-06-24T12:47:17;4.75;;;4.35;;
11646;SDS011;5880;52.342;9.662;2023-06-24T12:49:43;4.00;;;3.70;;
11646;SDS011;5880;52.342;9.662;2023-06-24T12:52:09;4.55;;;4.15;;
11646;SDS011;5880;52.342;9.662;2023-06-24T12:54:36;4.13;;;3.83;;
11646;SDS011;5880;52.342;9.662;2023-06-24T12:57:02;4.00;;;3.70;;
11646;SDS011;5880;52.342;9.662;2023-06-24T12:59:28;4.10;;;3.80;;
11646;SDS011;5880;52.342;9.662;2023-06-24T13:01:54;4.30;;;3.90;;
11646;SDS011;5880;52.342;9.662;2023-06-24T13:04:19;4.15;;;3.75;;
11646;SDS011;5880;52.342;9.662;2023-06-24T13:06:47;4.13;;;3.83;;
11646;SDS011;5880;52.342;9.662;2023-06-24T13:09:14;3.88;;;3.58;;
11646;SDS011;5880;52.342;9.662;2023-06-24T13:11:39;3.72;;;3.42;;
11646;SDS011;5880;52.342;9.662;2023-06-24T13:14:05;4.00;;;3.70;;
11646;SDS011;5880;52.342;9.662;2023-06-24T13:16:31;4.10;;;3.75;;
11646;SDS011;5880;52.342;9.662;2023-06-24T13:18:57;4.22;;;3.92;;
11646;SDS011;5880;52.342;9.662;2023-06-24T13:21:23;4.15;;;3.72;;
11646;SDS011;5880;52.342;9.662;2023-06-24T13:23:49;4.13;;;3.60;;
11646;SDS011;5880;52.342;9.662;2023-06-24T13:26:15;3.88;;;3.58;;
11646;SDS011;5880;52.342;9.662;2023-06-24T13:28:40;3.92;;;3.63;;
11646;SDS011;5880;52.342;9.662;2023-06-24T13:31:07;3.85;;;3.47;;
11646;SDS011;5880;52.342;9.662;2023-06-24T13:33:32;4.03;;;3.72;;
11646;SDS011;5880;52.342;9.662;2023-06-24T13:35:58;4.13;;;3.55;;
11646;SDS011;5880;52.342;9.662;2023-06-24T13:38:24;3.83;;;3.53;;
11646;SDS011;5880;52.342;9.662;2023-06-24T13:40:49;4.25;;;3.85;;
11646;SDS011;5880;52.342;9.662;2023-06-24T13:43:15;3.72;;;3.42;;
11646;SDS011;5880;52.342;9.662;2023-06-24T13:45:41;3.40;;;3.20;;
11646;SDS011;5880;52.342;9.662;2023-06-24T13:48:06;4.28;;;3.47;;
11646;SDS011;5880;52.342;9.662;2023-06-24T13:50:32;3.90;;;3.50;;
11646;SDS011;5880;52.342;9.662;2023-06-24T13:52:58;4.10;;;3.70;;
11646;SDS011;5880;52.342;9.662;2023-06-24T13:55:24;3.63;;;3.33;;
11646;SDS011;5880;52.342;9.662;2023-06-24T13:57:50;3.75;;;3.45;;
11646;SDS011;5880;52.342;9.662;2023-06-24T14:00:15;4.20;;;3.90;;
11646;SDS011;5880;52.342;9.662;2023-06-24T14:02:41;4.00;;;3.70;;
11646;SDS011;5880;52.342;9.662;2023-06-24T14:05:07;3.80;;;3.50;;
11646;SDS011;5880;52.342;9.662;2023-06-24T14:07:33;4.05;;;3.75;;
11646;SDS011;5880;52.342;9.662;2023-06-24T14:09:59;3.67;;;3.40;;
11646;SDS011;5880;52.342;9.662;2023-06-24T14:12:25;3.75;;;3.45;;
11646;SDS011;5880;52.342;9.662;2023-06-24T14:14:51;4.00;;;3.70;;
11646;SDS011;5880;52.342;9.662;2023-06-24T14:17:17;3.90;;;3.60;;
11646;SDS011;5880;52.342;9.662;2023-06-24T14:19:42;4.00;;;3.70;;
11646;SDS011;5880;52.342;9.662;2023-06-24T14:22:08;3.95;;;3.65;;
11646;SDS011;5880;52.342;9.662;2023-06-24T14:24:35;4.30;;;3.90;;
11646;SDS011;5880;52.342;9.662;2023-06-24T14:27:02;4.00;;;3.70;;
11646;SDS011;5880;52.342;9.662;2023-06-24T14:29:30;4.00;;;3.70;;
11646;SDS011;5880;52.342;9.662;2023-06-24T14:31:56;4.00;;;3.70;;
11646;SDS011;5880;52.342;9.662;2023-06-24T14:34:22;3.95;;;3.65;;
11646;SDS011;5880;52.342;9.662;2023-06-24T14:36:48;3.95;;;3.65;;
11646;SDS011;5880;52.342;9.662;2023-06-24T14:39:14;3.78;;;3.47;;
11646;SDS011;5880;52.342;9.662;2023-06-24T14:41:43;3.90;;;3.60;;
11646;SDS011;5880;52.342;9.662;2023-06-24T14:44:09;4.18;;;3.80;;
11646;SDS011;5880;52.342;9.662;2023-06-24T14:46:35;3.67;;;3.38;;
11646;SDS011;5880;52.342;9.662;2023-06-24T14:49:01;3.72;;;3.47;;
11646;SDS011;5880;52.342;9.662;2023-06-24T14:51:27;3.70;;;3.40;;
11646;SDS011;5880;52.342;9.662;2023-06-24T14:53:53;3.72;;;3.42;;
11646;SDS011;5880;52.342;9.662;2023-06-24T14:56:18;4.95;;;3.33;;
11646;SDS011;5880;52.342;9.662;2023-06-24T14:58:44;3.63;;;3.33;;
11646;SDS011;5880;52.342;9.662;2023-06-24T15:01:10;3.78;;;3.47;;
11646;SDS011;5880;52.342;9.662;2023-06-24T15:03:35;5.40;;;3.92;;
11646;SDS011;5880;52.342;9.662;2023-06-24T15:06:01;3.50;;;3.20;;
11646;SDS011;5880;52.342;9.662;2023-06-24T15:08:27;4.13;;;3.83;;
11646;SDS011;5880;52.342;9.662;2023-06-24T15:10:52;3.75;;;3.45;;
11646;SDS011;5880;52.342;9.662;2023-06-24T15:13:18;4.07;;;3.70;;
11646;SDS011;5880;52.342;9.662;2023-06-24T15:15:44;4.45;;;3.50;;